sensor_id;sensor_type;location;lat;lon;timestamp;pressure;altitude;pressure_sealevel;temperature;humidity
4570;BME280;2297;51.442;6.996;2023-05-07T00:00:50;100344.66;;;18.04;51.46
4570;BME280;2297;51.442;6.996;2023-05-07T00:03:17;100347.31;;;18.04;51.50
4570;BME280;2297;51.442;6.996;2023-05-07T00:05:45;100349.16;;;18.03;51.59
4570;BME280;2297;51.442;6.996;2023-05-07T00:08:13;100353.53;;;18.04;51.59
4570;BME280;2297;51.442;6.996;2023-05-07T00:10:40;100348.34;;;18.01;51.58
4570;BME280;2297;51.442;6.996;2023-05-07T00:13:07;100342.22;;;17.99;51.93
4570;BME280;2297;51.442;6.996;2023-05-07T00:15:34;100343.09;;;18.00;52.05
4570;BME280;2297;51.442;6.996;2023-05-07T00:18:00;100345.69;;;18.01;51.64
4570;BME280;2297;51.442;6.996;2023-05-07T00:20:27;100347.56;;;17.99;51.70
4570;BME280;2297;51.442;6.996;2023-05-07T00:22:55;100346.78;;;17.97;51.80
4570;BME280;2297;51.442;6.996;2023-05-07T00:25:22;100335.28;;;17.95;52.22
4570;BME280;2297;51.442;6.996;2023-05-07T00:27:48;100350.38;;;17.96;51.93
4570;BME280;2297;51.442;6.996;2023-05-07T00:30:15;100340.50;;;17.98;52.04
4570;BME280;2297;51.442;6.996;2023-05-07T00:32:41;100351.19;;;17.98;51.97
4570;BME280;2297;51.442;6.996;2023-05-07T00:35:10;100339.78;;;17.94;52.06
4570;BME280;2297;51.442;6.996;2023-05-07T00:37:37;100328.25;;;17.94;52.01
4570;BME280;2297;51.442;6.996;2023-05-07T00:40:06;100325.81;;;17.89;52.42
4570;BME280;2297;51.442;6.996;2023-05-07T00:42:33;100315.97;;;17.90;52.21
4570;BME280;2297;51.442;6.996;2023-05-07T00:45:00;100323.22;;;17.88;52.22
4570;BME280;2297;51.442;6.996;2023-05-07T00:47:26;100326.97;;;17.84;52.53
4570;BME280;2297;51.442;6.996;2023-05-07T00:49:53;100321.66;;;17.84;52.46
4570;BME280;2297;51.442;6.996;2023-05-07T00:52:21;100320.22;;;17.76;52.68
4570;BME280;2297;51.442;6.996;2023-05-07T00:54:50;100315.88;;;17.74;52.77
4570;BME280;2297;51.442;6.996;2023-05-07T00:57:18;100321.47;;;17.69;52.89
4570;BME280;2297;51.442;6.996;2023-05-07T00:59:46;100317.06;;;17.68;52.85
4570;BME280;2297;51.442;6.996;2023-05-07T01:02:13;100317.72;;;17.73;52.86
4570;BME280;2297;51.442;6.996;2023-05-07T01:04:39;100324.16;;;17.69;52.92
4570;BME280;2297;51.442;6.996;2023-05-07T01:07:06;100317.97;;;17.69;52.92
4570;BME280;2297;51.442;6.996;2023-05-07T01:09:33;100321.66;;;17.66;53.25
4570;BME280;2297;51.442;6.996;2023-05-07T01:12:01;100321.66;;;17.66;53.06
4570;BME280;2297;51.442;6.996;2023-05-07T01:14:30;100324.31;;;17.66;53.15
4570;BME280;2297;51.442;6.996;2023-05-07T01:16:58;100316.31;;;17.66;53.21
4570;BME280;2297;51.442;6.996;2023-05-07T01:19:25;100322.25;;;17.71;53.02
4570;BME280;2297;51.442;6.996;2023-05-07T01:22:00;100316.91;;;17.71;53.15
4570;BME280;2297;51.442;6.996;2023-05-07T01:24:30;100324.16;;;17.69;53.22
4570;BME280;2297;51.442;6.996;2023-05-07T01:26:56;100326.03;;;17.67;53.35
4570;BME280;2297;51.442;6.996;2023-05-07T01:29:23;100324.31;;;17.66;53.42
4570;BME280;2297;51.442;6.996;2023-05-07T01:31:51;100319.81;;;17.67;53.23
4570;BME280;2297;51.442;6.996;2023-05-07T01:34:19;100326.97;;;17.66;53.42
4570;BME280;2297;51.442;6.996;2023-05-07T01:36:48;100318.00;;;17.67;53.73
4570;BME280;2297;51.442;6.996;2023-05-07T01:39:15;100316.13;;;17.69;53.40
4570;BME280;2297;51.442;6.996;2023-05-07T01:41:44;100316.41;;;17.63;53.44
4570;BME280;2297;51.442;6.996;2023-05-07T01:44:13;100322.69;;;17.62;53.56
4570;BME280;2297;51.442;6.996;2023-05-07T01:46:40;100315.41;;;17.66;53.58
4570;BME280;2297;51.442;6.996;2023-05-07T01:49:07;100315.34;;;17.67;53.25
4570;BME280;2297;51.442;6.996;2023-05-07T01:51:34;100309.34;;;17.62;53.40
4570;BME280;2297;51.442;6.996;2023-05-07T01:54:01;100306.75;;;17.60;53.37
4570;BME280;2297;51.442;6.996;2023-05-07T01:56:28;100310.44;;;17.58;53.53
4570;BME280;2297;51.442;6.996;2023-05-07T01:58:56;100304.31;;;17.56;53.67
4570;BME280;2297;51.442;6.996;2023-05-07T02:01:23;100311.44;;;17.55;53.41
4570;BME280;2297;51.442;6.996;2023-05-07T02:03:49;100307.00;;;17.56;53.54
4570;BME280;2297;51.442;6.996;2023-05-07T02:06:16;100312.47;;;17.53;53.73
4570;BME280;2297;51.442;6.996;2023-05-07T02:08:42;100311.53;;;17.54;53.65
4570;BME280;2297;51.442;6.996;2023-05-07T02:11:09;100315.13;;;17.53;53.52
4570;BME280;2297;51.442;6.996;2023-05-07T02:13:36;100317.97;;;17.50;53.77
4570;BME280;2297;51.442;6.996;2023-05-07T02:16:04;100309.09;;;17.49;53.65
4570;BME280;2297;51.442;6.996;2023-05-07T02:18:31;100310.88;;;17.49;53.65
4570;BME280;2297;51.442;6.996;2023-05-07T02:20:58;100304.78;;;17.46;53.76
4570;BME280;2297;51.442;6.996;2023-05-07T02:23:25;100301.41;;;17.43;53.73
4570;BME280;2297;51.442;6.996;2023-05-07T02:25:51;100304.88;;;17.45;53.96
4570;BME280;2297;51.442;6.996;2023-05-07T02:28:18;100312.16;;;17.41;54.01
4570;BME280;2297;51.442;6.996;2023-05-07T02:30:45;100316.84;;;17.36;54.21
4570;BME280;2297;51.442;6.996;2023-05-07T02:33:13;100306.91;;;17.40;54.27
4570;BME280;2297;51.442;6.996;2023-05-07T02:35:39;100309.66;;;17.38;54.13
4570;BME280;2297;51.442;6.996;2023-05-07T02:38:06;100307.75;;;17.40;54.04
4570;BME280;2297;51.442;6.996;2023-05-07T02:40:33;100302.56;;;17.37;54.22
4570;BME280;2297;51.442;6.996;2023-05-07T02:43:03;100306.25;;;17.35;54.18
4570;BME280;2297;51.442;6.996;2023-05-07T02:45:30;100304.31;;;17.38;54.35
4570;BME280;2297;51.442;6.996;2023-05-07T02:47:57;100300.84;;;17.36;54.42
4570;BME280;2297;51.442;6.996;2023-05-07T02:50:25;100304.53;;;17.34;54.47
4570;BME280;2297;51.442;6.996;2023-05-07T02:52:52;100306.19;;;17.36;54.44
4570;BME280;2297;51.442;6.996;2023-05-07T02:55:19;100306.19;;;17.36;54.34
4570;BME280;2297;51.442;6.996;2023-05-07T02:57:45;100301.00;;;17.33;54.51
4570;BME280;2297;51.442;6.996;2023-05-07T03:00:14;100300.84;;;17.36;54.36
4570;BME280;2297;51.442;6.996;2023-05-07T03:02:41;100295.75;;;17.32;54.52
4570;BME280;2297;51.442;6.996;2023-05-07T03:05:07;100298.47;;;17.30;54.59
4570;BME280;2297;51.442;6.996;2023-05-07T03:07:36;100305.91;;;17.23;54.65
4570;BME280;2297;51.442;6.996;2023-05-07T03:10:03;100303.16;;;17.25;54.99
4570;BME280;2297;51.442;6.996;2023-05-07T03:12:30;100308.50;;;17.25;54.80
4570;BME280;2297;51.442;6.996;2023-05-07T03:14:57;100312.91;;;17.26;54.55
4570;BME280;2297;51.442;6.996;2023-05-07T03:17:24;100306.91;;;17.21;54.89
4570;BME280;2297;51.442;6.996;2023-05-07T03:19:50;100315.88;;;17.20;54.92
4570;BME280;2297;51.442;6.996;2023-05-07T03:22:17;100314.16;;;17.19;55.11
4570;BME280;2297;51.442;6.996;2023-05-07T03:24:45;100316.00;;;17.17;54.81
4570;BME280;2297;51.442;6.996;2023-05-07T03:27:11;100317.75;;;17.18;54.90
4570;BME280;2297;51.442;6.996;2023-05-07T03:29:38;100321.34;;;17.17;54.89
4570;BME280;2297;51.442;6.996;2023-05-07T03:32:04;100309.91;;;17.15;54.94
4570;BME280;2297;51.442;6.996;2023-05-07T03:34:32;100316.16;;;17.13;55.13
4570;BME280;2297;51.442;6.996;2023-05-07T03:36:58;100316.16;;;17.13;55.27
4570;BME280;2297;51.442;6.996;2023-05-07T03:39:25;100315.31;;;17.13;55.28
4570;BME280;2297;51.442;6.996;2023-05-07T03:41:53;100302.84;;;17.13;55.04
4570;BME280;2297;51.442;6.996;2023-05-07T03:44:19;100303.59;;;17.16;55.17
4570;BME280;2297;51.442;6.996;2023-05-07T03:46:46;100300.00;;;17.17;54.92
4570;BME280;2297;51.442;6.996;2023-05-07T03:49:12;100300.16;;;17.13;55.08
4570;BME280;2297;51.442;6.996;2023-05-07T03:51:39;100298.44;;;17.12;55.19
4570;BME280;2297;51.442;6.996;2023-05-07T03:54:06;100303.75;;;17.12;55.20
4570;BME280;2297;51.442;6.996;2023-05-07T03:56:32;100311.03;;;17.09;55.47
4570;BME280;2297;51.442;6.996;2023-05-07T03:59:01;100304.84;;;17.08;55.41
4570;BME280;2297;51.442;6.996;2023-05-07T04:01:28;100308.31;;;17.10;55.40
4570;BME280;2297;51.442;6.996;2023-05-07T04:03:55;100307.22;;;17.15;55.34
4570;BME280;2297;51.442;6.996;2023-05-07T04:06:22;100299.16;;;17.16;55.34
4570;BME280;2297;51.442;6.996;2023-05-07T04:08:49;100305.50;;;17.13;55.28
4570;BME280;2297;51.442;6.996;2023-05-07T04:11:16;100316.34;;;17.10;55.59
4570;BME280;2297;51.442;6.996;2023-05-07T04:13:42;100314.44;;;17.12;55.49
4570;BME280;2297;51.442;6.996;2023-05-07T04:16:10;100319.78;;;17.12;55.44
4570;BME280;2297;51.442;6.996;2023-05-07T04:18:37;100317.25;;;17.09;55.85
4570;BME280;2297;51.442;6.996;2023-05-07T04:21:04;100320.13;;;17.05;55.94
4570;BME280;2297;51.442;6.996;2023-05-07T04:23:30;100316.34;;;17.10;55.69
4570;BME280;2297;51.442;6.996;2023-05-07T04:25:57;100318.19;;;17.08;56.05
4570;BME280;2297;51.442;6.996;2023-05-07T04:28:24;100318.34;;;17.05;56.16
4570;BME280;2297;51.442;6.996;2023-05-07T04:30:51;100321.66;;;17.10;56.02
4570;BME280;2297;51.442;6.996;2023-05-07T04:33:18;100317.25;;;17.09;56.26
4570;BME280;2297;51.442;6.996;2023-05-07T04:35:45;100324.34;;;17.10;56.31
4570;BME280;2297;51.442;6.996;2023-05-07T04:38:12;100322.53;;;17.11;56.36
4570;BME280;2297;51.442;6.996;2023-05-07T04:40:38;100321.66;;;17.10;56.46
4570;BME280;2297;51.442;6.996;2023-05-07T04:43:05;100324.34;;;17.10;56.34
4570;BME280;2297;51.442;6.996;2023-05-07T04:45:32;100324.25;;;17.12;56.47
4570;BME280;2297;51.442;6.996;2023-05-07T04:47:59;100332.19;;;17.13;56.49
4570;BME280;2297;51.442;6.996;2023-05-07T04:50:27;100332.03;;;17.17;56.23
4570;BME280;2297;51.442;6.996;2023-05-07T04:52:53;100327.00;;;17.10;56.53
4570;BME280;2297;51.442;6.996;2023-05-07T04:55:20;100328.41;;;17.18;56.19
4570;BME280;2297;51.442;6.996;2023-05-07T04:57:46;100321.72;;;17.09;56.29
4570;BME280;2297;51.442;6.996;2023-05-07T05:00:14;100326.56;;;17.01;56.73
4570;BME280;2297;51.442;6.996;2023-05-07T05:02:41;100334.47;;;17.02;56.89
4570;BME280;2297;51.442;6.996;2023-05-07T05:05:08;100338.25;;;16.98;56.84
4570;BME280;2297;51.442;6.996;2023-05-07T05:07:37;100346.88;;;17.03;56.90
4570;BME280;2297;51.442;6.996;2023-05-07T05:10:05;100334.34;;;17.05;56.91
4570;BME280;2297;51.442;6.996;2023-05-07T05:12:32;100335.06;;;17.09;56.78
4570;BME280;2297;51.442;6.996;2023-05-07T05:14:58;100339.47;;;17.10;56.68
4570;BME280;2297;51.442;6.996;2023-05-07T05:17:25;100337.97;;;17.04;56.86
4570;BME280;2297;51.442;6.996;2023-05-07T05:19:52;100345.03;;;17.05;56.91
4570;BME280;2297;51.442;6.996;2023-05-07T05:22:18;100348.34;;;17.10;56.70
4570;BME280;2297;51.442;6.996;2023-05-07T05:24:46;100346.63;;;17.09;56.47
4570;BME280;2297;51.442;6.996;2023-05-07T05:27:13;100347.34;;;17.13;56.52
4570;BME280;2297;51.442;6.996;2023-05-07T05:29:39;100344.59;;;17.15;56.48
4570;BME280;2297;51.442;6.996;2023-05-07T05:32:06;100345.59;;;17.12;56.59
4570;BME280;2297;51.442;6.996;2023-05-07T05:34:33;100345.38;;;17.17;56.55
4570;BME280;2297;51.442;6.996;2023-05-07T05:36:59;100342.00;;;17.13;56.51
4570;BME280;2297;51.442;6.996;2023-05-07T05:39:26;100342.78;;;17.15;56.59
4570;BME280;2297;51.442;6.996;2023-05-07T05:41:54;100349.03;;;17.14;56.58
4570;BME280;2297;51.442;6.996;2023-05-07T05:44:20;100342.56;;;17.20;56.41
4570;BME280;2297;51.442;6.996;2023-05-07T05:46:47;100354.03;;;17.22;55.97
4570;BME280;2297;51.442;6.996;2023-05-07T05:49:14;100358.25;;;17.26;55.88
4570;BME280;2297;51.442;6.996;2023-05-07T05:51:41;100355.25;;;17.15;56.16
4570;BME280;2297;51.442;6.996;2023-05-07T05:54:08;100354.09;;;17.20;55.96
4570;BME280;2297;51.442;6.996;2023-05-07T05:56:34;100353.09;;;17.23;55.88
4570;BME280;2297;51.442;6.996;2023-05-07T05:59:02;100365.56;;;17.22;55.84
4570;BME280;2297;51.442;6.996;2023-05-07T06:01:29;100355.91;;;17.20;55.76
4570;BME280;2297;51.442;6.996;2023-05-07T06:03:56;100355.97;;;17.18;55.77
4570;BME280;2297;51.442;6.996;2023-05-07T06:06:22;100356.41;;;17.28;55.42
4570;BME280;2297;51.442;6.996;2023-05-07T06:08:49;100358.69;;;17.36;55.10
4570;BME280;2297;51.442;6.996;2023-05-07T06:11:16;100355.94;;;17.37;54.98
4570;BME280;2297;51.442;6.996;2023-05-07T06:13:42;100368.84;;;17.46;54.69
4570;BME280;2297;51.442;6.996;2023-05-07T06:16:10;100361.31;;;17.55;54.60
4570;BME280;2297;51.442;6.996;2023-05-07T06:18:37;100361.78;;;17.63;54.50
4570;BME280;2297;51.442;6.996;2023-05-07T06:21:04;100362.38;;;17.70;54.13
4570;BME280;2297;51.442;6.996;2023-05-07T06:23:30;100351.56;;;17.73;53.81
4570;BME280;2297;51.442;6.996;2023-05-07T06:25:57;100364.59;;;17.79;53.47
4570;BME280;2297;51.442;6.996;2023-05-07T06:28:24;100371.59;;;17.82;53.27
4570;BME280;2297;51.442;6.996;2023-05-07T06:30:50;100370.28;;;17.90;53.11
4570;BME280;2297;51.442;6.996;2023-05-07T06:33:18;100372.69;;;17.95;52.85
4570;BME280;2297;51.442;6.996;2023-05-07T06:35:45;100376.34;;;17.94;52.59
4570;BME280;2297;51.442;6.996;2023-05-07T06:38:12;100379.00;;;17.94;52.60
4570;BME280;2297;51.442;6.996;2023-05-07T06:40:39;100380.72;;;17.95;52.42
4570;BME280;2297;51.442;6.996;2023-05-07T06:43:05;100375.06;;;18.01;52.25
4570;BME280;2297;51.442;6.996;2023-05-07T06:45:32;100382.91;;;18.04;51.92
4570;BME280;2297;51.442;6.996;2023-05-07T06:47:58;100384.66;;;18.05;51.96
4570;BME280;2297;51.442;6.996;2023-05-07T06:50:26;100379.00;;;18.11;51.82
4570;BME280;2297;51.442;6.996;2023-05-07T06:52:53;100371.63;;;18.17;51.76
4570;BME280;2297;51.442;6.996;2023-05-07T06:55:20;100375.06;;;18.19;51.52
4570;BME280;2297;51.442;6.996;2023-05-07T06:57:46;100372.00;;;18.26;51.23
4570;BME280;2297;51.442;6.996;2023-05-07T07:00:14;100371.75;;;18.31;50.93
4570;BME280;2297;51.442;6.996;2023-05-07T07:02:40;100371.59;;;18.34;50.52
4570;BME280;2297;51.442;6.996;2023-05-07T07:05:07;100375.66;;;18.41;50.46
4570;BME280;2297;51.442;6.996;2023-05-07T07:07:35;100378.13;;;18.46;49.98
4570;BME280;2297;51.442;6.996;2023-05-07T07:10:02;100378.84;;;18.50;50.01
4570;BME280;2297;51.442;6.996;2023-05-07T07:12:30;100371.50;;;18.53;50.04
4570;BME280;2297;51.442;6.996;2023-05-07T07:14:56;100376.44;;;18.61;49.94
4570;BME280;2297;51.442;6.996;2023-05-07T07:17:23;100376.97;;;18.68;50.08
4570;BME280;2297;51.442;6.996;2023-05-07T07:19:50;100379.56;;;18.69;50.02
4570;BME280;2297;51.442;6.996;2023-05-07T07:22:16;100382.84;;;18.74;49.85
4570;BME280;2297;51.442;6.996;2023-05-07T07:24:44;100382.72;;;18.77;49.78
4570;BME280;2297;51.442;6.996;2023-05-07T07:27:36;100379.06;;;18.78;49.58
4570;BME280;2297;51.442;6.996;2023-05-07T07:30:03;100385.97;;;18.83;50.05
4570;BME280;2297;51.442;6.996;2023-05-07T07:32:30;100382.13;;;18.88;50.27
4570;BME280;2297;51.442;6.996;2023-05-07T07:34:57;100378.56;;;18.88;50.15
4570;BME280;2297;51.442;6.996;2023-05-07T07:37:24;100375.78;;;18.89;50.27
4570;BME280;2297;51.442;6.996;2023-05-07T07:39:52;100371.84;;;18.97;50.55
4570;BME280;2297;51.442;6.996;2023-05-07T07:42:18;100377.91;;;19.00;50.28
4570;BME280;2297;51.442;6.996;2023-05-07T07:44:45;100383.06;;;19.03;50.27
4570;BME280;2297;51.442;6.996;2023-05-07T07:47:12;100379.81;;;19.14;49.56
4570;BME280;2297;51.442;6.996;2023-05-07T07:49:38;100391.06;;;19.21;49.24
4570;BME280;2297;51.442;6.996;2023-05-07T07:52:05;100389.16;;;19.23;49.12
4570;BME280;2297;51.442;6.996;2023-05-07T07:54:32;100395.19;;;19.26;49.60
4570;BME280;2297;51.442;6.996;2023-05-07T07:57:00;100397.88;;;19.26;48.89
4570;BME280;2297;51.442;6.996;2023-05-07T07:59:26;100400.63;;;19.25;48.50
4570;BME280;2297;51.442;6.996;2023-05-07T08:01:53;100398.91;;;19.24;48.24
4570;BME280;2297;51.442;6.996;2023-05-07T08:04:22;100401.59;;;19.24;48.61
4570;BME280;2297;51.442;6.996;2023-05-07T08:06:48;100401.75;;;19.21;48.55
4570;BME280;2297;51.442;6.996;2023-05-07T08:09:15;100399.50;;;19.29;48.63
4570;BME280;2297;51.442;6.996;2023-05-07T08:11:42;100399.88;;;19.39;48.30
4570;BME280;2297;51.442;6.996;2023-05-07T08:14:10;100406.34;;;19.51;48.03
4570;BME280;2297;51.442;6.996;2023-05-07T08:16:37;100404.00;;;19.60;48.19
4570;BME280;2297;51.442;6.996;2023-05-07T08:19:04;100405.09;;;19.72;47.70
4570;BME280;2297;51.442;6.996;2023-05-07T08:21:31;100400.06;;;19.82;47.52
4570;BME280;2297;51.442;6.996;2023-05-07T08:23:58;100408.78;;;19.86;47.46
4570;BME280;2297;51.442;6.996;2023-05-07T08:26:24;100403.97;;;19.92;46.82
4570;BME280;2297;51.442;6.996;2023-05-07T08:28:51;100394.75;;;20.13;46.17
4570;BME280;2297;51.442;6.996;2023-05-07T08:31:19;100398.34;;;20.27;46.08
4570;BME280;2297;51.442;6.996;2023-05-07T08:33:45;100400.72;;;20.32;45.24
4570;BME280;2297;51.442;6.996;2023-05-07T08:36:12;100408.00;;;20.44;45.09
4570;BME280;2297;51.442;6.996;2023-05-07T08:38:39;100399.97;;;20.44;44.64
4570;BME280;2297;51.442;6.996;2023-05-07T08:41:09;100401.34;;;20.52;44.92
4570;BME280;2297;51.442;6.996;2023-05-07T08:43:37;100405.19;;;20.62;45.28
4570;BME280;2297;51.442;6.996;2023-05-07T08:46:09;100402.34;;;20.65;45.65
4570;BME280;2297;51.442;6.996;2023-05-07T08:48:37;100403.44;;;20.61;45.48
4570;BME280;2297;51.442;6.996;2023-05-07T08:51:05;100400.50;;;20.66;45.87
4570;BME280;2297;51.442;6.996;2023-05-07T08:53:31;100395.22;;;20.64;45.70
4570;BME280;2297;51.442;6.996;2023-05-07T08:55:59;100390.41;;;20.55;45.49
4570;BME280;2297;51.442;6.996;2023-05-07T08:58:26;100400.97;;;20.58;45.63
4570;BME280;2297;51.442;6.996;2023-05-07T09:00:52;100398.69;;;20.66;45.01
4570;BME280;2297;51.442;6.996;2023-05-07T09:03:20;100393.47;;;20.63;44.07
4570;BME280;2297;51.442;6.996;2023-05-07T09:05:48;100398.13;;;20.75;44.11
4570;BME280;2297;51.442;6.996;2023-05-07T09:08:15;100394.66;;;20.73;44.24
4570;BME280;2297;51.442;6.996;2023-05-07T09:10:42;100392.34;;;20.82;44.30
4570;BME280;2297;51.442;6.996;2023-05-07T09:13:08;100395.22;;;20.93;43.79
4570;BME280;2297;51.442;6.996;2023-05-07T09:15:38;100389.28;;;20.88;44.03
4570;BME280;2297;51.442;6.996;2023-05-07T09:18:04;100393.59;;;20.90;43.83
4570;BME280;2297;51.442;6.996;2023-05-07T09:20:31;100392.34;;;20.96;43.84
4570;BME280;2297;51.442;6.996;2023-05-07T09:22:59;100399.63;;;21.08;43.63
4570;BME280;2297;51.442;6.996;2023-05-07T09:25:29;100399.03;;;21.18;42.72
4570;BME280;2297;51.442;6.996;2023-05-07T09:27:56;100395.84;;;21.25;42.95
4570;BME280;2297;51.442;6.996;2023-05-07T09:30:27;100391.47;;;21.24;42.26
4570;BME280;2297;51.442;6.996;2023-05-07T09:32:54;100394.50;;;21.33;41.78
4570;BME280;2297;51.442;6.996;2023-05-07T09:35:20;100394.03;;;21.40;41.59
4570;BME280;2297;51.442;6.996;2023-05-07T09:37:49;100390.94;;;21.47;41.70
4570;BME280;2297;51.442;6.996;2023-05-07T09:40:24;100399.25;;;21.56;41.83
4570;BME280;2297;51.442;6.996;2023-05-07T09:42:51;100389.38;;;21.57;42.11
4570;BME280;2297;51.442;6.996;2023-05-07T09:45:22;100397.59;;;21.68;42.49
4570;BME280;2297;51.442;6.996;2023-05-07T09:47:53;100394.22;;;21.37;42.78
4570;BME280;2297;51.442;6.996;2023-05-07T09:50:22;100390.44;;;21.54;42.56
4570;BME280;2297;51.442;6.996;2023-05-07T09:52:52;100396.69;;;21.55;42.54
4570;BME280;2297;51.442;6.996;2023-05-07T09:55:20;100394.34;;;21.63;42.68
4570;BME280;2297;51.442;6.996;2023-05-07T09:57:50;100395.00;;;21.67;42.30
4570;BME280;2297;51.442;6.996;2023-05-07T10:00:18;100395.13;;;21.78;42.07
4570;BME280;2297;51.442;6.996;2023-05-07T10:02:46;100402.28;;;21.92;41.04
4570;BME280;2297;51.442;6.996;2023-05-07T10:05:15;100384.84;;;21.85;41.41
4570;BME280;2297;51.442;6.996;2023-05-07T10:07:42;100389.69;;;21.92;41.75
4570;BME280;2297;51.442;6.996;2023-05-07T10:10:10;100392.50;;;21.91;41.89
4570;BME280;2297;51.442;6.996;2023-05-07T10:12:37;100390.75;;;21.90;42.27
4570;BME280;2297;51.442;6.996;2023-05-07T10:15:08;100391.88;;;22.00;41.89
4570;BME280;2297;51.442;6.996;2023-05-07T10:17:35;100386.09;;;22.06;41.96
4570;BME280;2297;51.442;6.996;2023-05-07T10:20:03;100396.22;;;22.16;41.43
4570;BME280;2297;51.442;6.996;2023-05-07T10:22:33;100391.94;;;22.26;41.78
4570;BME280;2297;51.442;6.996;2023-05-07T10:25:06;100391.50;;;22.32;41.61
4570;BME280;2297;51.442;6.996;2023-05-07T10:27:36;100390.22;;;22.38;41.17
4570;BME280;2297;51.442;6.996;2023-05-07T10:30:12;100390.22;;;22.51;40.77
4570;BME280;2297;51.442;6.996;2023-05-07T10:32:45;100391.94;;;22.65;40.39
4570;BME280;2297;51.442;6.996;2023-05-07T10:35:20;100388.19;;;22.67;40.12
4570;BME280;2297;51.442;6.996;2023-05-07T10:37:47;100394.13;;;22.72;40.01
4570;BME280;2297;51.442;6.996;2023-05-07T10:40:15;100394.00;;;22.87;39.90
4570;BME280;2297;51.442;6.996;2023-05-07T10:42:58;100397.53;;;23.00;39.76
4570;BME280;2297;51.442;6.996;2023-05-07T10:45:28;100395.91;;;23.10;39.22
4570;BME280;2297;51.442;6.996;2023-05-07T10:48:18;100396.19;;;23.19;38.85
4570;BME280;2297;51.442;6.996;2023-05-07T10:50:45;100394.47;;;23.18;39.01
4570;BME280;2297;51.442;6.996;2023-05-07T10:53:22;100395.22;;;23.20;38.68
4570;BME280;2297;51.442;6.996;2023-05-07T10:56:24;100394.25;;;23.21;38.23
4570;BME280;2297;51.442;6.996;2023-05-07T10:58:51;100387.44;;;23.28;38.49
4570;BME280;2297;51.442;6.996;2023-05-07T11:01:50;100385.63;;;23.29;38.48
4570;BME280;2297;51.442;6.996;2023-05-07T11:04:17;100390.13;;;23.28;38.92
4570;BME280;2297;51.442;6.996;2023-05-07T11:10:03;100391.75;;;23.18;38.56
4570;BME280;2297;51.442;6.996;2023-05-07T11:12:49;100390.13;;;23.28;39.08
4570;BME280;2297;51.442;6.996;2023-05-07T11:15:33;100379.34;;;23.28;38.84
4570;BME280;2297;51.442;6.996;2023-05-07T11:18:01;100378.69;;;23.37;38.87
4570;BME280;2297;51.442;6.996;2023-05-07T11:20:51;100380.78;;;23.58;38.07
4570;BME280;2297;51.442;6.996;2023-05-07T11:23:55;100376.81;;;23.51;38.00
4570;BME280;2297;51.442;6.996;2023-05-07T11:26:24;100375.56;;;23.68;37.96
4570;BME280;2297;51.442;6.996;2023-05-07T11:28:51;100376.59;;;23.78;37.26
4570;BME280;2297;51.442;6.996;2023-05-07T11:31:23;100377.22;;;23.82;37.34
4570;BME280;2297;51.442;6.996;2023-05-07T11:33:53;100374.78;;;23.90;37.48
4570;BME280;2297;51.442;6.996;2023-05-07T11:36:21;100378.88;;;23.96;37.34
4570;BME280;2297;51.442;6.996;2023-05-07T11:38:48;100375.44;;;23.93;37.21
4570;BME280;2297;51.442;6.996;2023-05-07T11:41:16;100375.84;;;24.00;36.77
4570;BME280;2297;51.442;6.996;2023-05-07T11:43:56;100373.78;;;24.15;36.28
4570;BME280;2297;51.442;6.996;2023-05-07T11:46:23;100370.50;;;24.23;36.13
4570;BME280;2297;51.442;6.996;2023-05-07T11:48:51;100368.31;;;24.39;36.04
4570;BME280;2297;51.442;6.996;2023-05-07T11:51:19;100375.69;;;24.37;36.02
4570;BME280;2297;51.442;6.996;2023-05-07T11:53:46;100369.06;;;24.41;35.65
4570;BME280;2297;51.442;6.996;2023-05-07T11:56:14;100376.16;;;24.31;35.94
4570;BME280;2297;51.442;6.996;2023-05-07T11:58:41;100371.50;;;24.33;36.11
4570;BME280;2297;51.442;6.996;2023-05-07T12:01:09;100377.13;;;24.19;36.71
4570;BME280;2297;51.442;6.996;2023-05-07T12:03:36;100374.13;;;24.11;36.86
4570;BME280;2297;51.442;6.996;2023-05-07T12:06:06;100377.59;;;24.13;36.27
4570;BME280;2297;51.442;6.996;2023-05-07T12:08:36;100383.56;;;24.05;36.73
4570;BME280;2297;51.442;6.996;2023-05-07T12:11:02;100376.94;;;23.98;36.70
4570;BME280;2297;51.442;6.996;2023-05-07T12:13:29;100377.16;;;23.95;37.06
4570;BME280;2297;51.442;6.996;2023-05-07T12:15:56;100384.09;;;23.86;36.78
4570;BME280;2297;51.442;6.996;2023-05-07T12:18:23;100386.53;;;23.78;37.31
4570;BME280;2297;51.442;6.996;2023-05-07T12:20:51;100387.22;;;23.68;37.08
4570;BME280;2297;51.442;6.996;2023-05-07T12:23:19;100384.00;;;23.63;37.59
4570;BME280;2297;51.442;6.996;2023-05-07T12:25:46;100381.91;;;23.42;37.56
4570;BME280;2297;51.442;6.996;2023-05-07T12:28:14;100387.16;;;23.20;37.99
4570;BME280;2297;51.442;6.996;2023-05-07T12:30:42;100387.00;;;22.97;38.96
4570;BME280;2297;51.442;6.996;2023-05-07T12:33:09;100384.81;;;23.02;38.77
4570;BME280;2297;51.442;6.996;2023-05-07T12:35:37;100389.31;;;23.15;38.01
4570;BME280;2297;51.442;6.996;2023-05-07T12:38:07;100385.00;;;23.12;38.38
4570;BME280;2297;51.442;6.996;2023-05-07T12:40:40;100393.84;;;23.14;38.84
4570;BME280;2297;51.442;6.996;2023-05-07T12:43:07;100396.84;;;23.09;38.75
4570;BME280;2297;51.442;6.996;2023-05-07T12:45:37;100398.81;;;23.07;38.22
4570;BME280;2297;51.442;6.996;2023-05-07T12:48:04;100395.59;;;23.02;38.09
4570;BME280;2297;51.442;6.996;2023-05-07T12:50:31;100394.31;;;22.95;38.57
4570;BME280;2297;51.442;6.996;2023-05-07T12:52:59;100398.00;;;22.94;38.21
4570;BME280;2297;51.442;6.996;2023-05-07T12:55:28;100400.81;;;22.80;38.98
4570;BME280;2297;51.442;6.996;2023-05-07T12:57:56;100407.88;;;22.81;38.88
4570;BME280;2297;51.442;6.996;2023-05-07T13:00:36;100408.75;;;22.68;38.97
4570;BME280;2297;51.442;6.996;2023-05-07T13:03:04;100403.16;;;22.58;39.27
4570;BME280;2297;51.442;6.996;2023-05-07T13:05:31;100407.34;;;22.50;39.45
4570;BME280;2297;51.442;6.996;2023-05-07T13:07:58;100408.53;;;22.46;39.15
4570;BME280;2297;51.442;6.996;2023-05-07T13:10:25;100416.94;;;22.41;39.83
4570;BME280;2297;51.442;6.996;2023-05-07T13:12:52;100413.34;;;22.27;39.81
4570;BME280;2297;51.442;6.996;2023-05-07T13:15:21;100416.91;;;22.28;40.03
4570;BME280;2297;51.442;6.996;2023-05-07T13:17:48;100419.72;;;22.26;40.35